Osterild, Denmark
Current Conditions -  °F | °C
As of 5:20 AM on Thursday 18 Dec 2014 (Local Time) from EKYT Reporting Station
Broken Clouds Broken Clouds  
Wind Chill: 36°   Ceiling: 6300
Heat Index: 41°   Visibility: 6mi
Dew Point: 41°   Wind: 7mph
Humidity: 100%   Direction: 200°SSW
Pressure: 29.47"   Gusts: NA
Location:  57.03°N, 8.86°E
Report Text: EKYT 180420Z 20006KT 9000 FEW033 BKN063 05/05 Q0998
Loading
Personal Weather Stations






























Interactive Weather Map New forecast layout! Learn more

10-Day Weather Forecast

Advertisements
Track Severe Weather on mobile